Time;durP1;ratioP1;P1;durP2;ratioP2;P2;SDS_P1;SDS_P2;PMS_P1;PMS_P2;Temp;Humidity;BMP_temperature;BMP_pressure;BME280_temperature;BME280_humidity;BME280_pressure;Samples;Min_cycle;Max_cycle;Signal;HPM_P1;HPM_P2
2023/09/02 00:00:21;;;;;;;8.60;4.07;;;15.80;99.90;;;;;;4976757;28;20329;-78
2023/09/02 00:02:47;;;;;;;10.43;4.17;;;15.80;99.90;;;;;;4976683;28;20198;-78
2023/09/02 00:05:12;;;;;;;6.13;3.80;;;15.80;99.90;;;;;;4975990;28;20178;-78
2023/09/02 00:07:38;;;;;;;7.93;4.17;;;15.80;99.90;;;;;;4976653;28;20253;-78
2023/09/02 00:10:04;;;;;;;9.07;4.27;;;15.90;99.90;;;;;;4976229;28;20178;-79
2023/09/02 00:12:30;;;;;;;9.43;5.30;;;15.90;99.90;;;;;;4974854;28;20195;-79
2023/09/02 00:14:55;;;;;;;9.10;4.77;;;15.90;99.90;;;;;;4974467;28;20233;-79
2023/09/02 00:17:21;;;;;;;8.43;4.50;;;15.90;99.90;;;;;;4975096;28;20179;-78
2023/09/02 00:19:47;;;;;;;6.40;4.10;;;15.90;99.90;;;;;;4974750;28;20178;-78
2023/09/02 00:22:12;;;;;;;10.50;4.43;;;15.90;99.90;;;;;;4974669;28;20208;-78
2023/09/02 00:24:38;;;;;;;6.77;4.80;;;15.90;99.90;;;;;;4976002;28;20177;-78
2023/09/02 00:27:04;;;;;;;6.10;4.53;;;15.90;99.90;;;;;;4976451;28;20257;-78
2023/09/02 00:29:30;;;;;;;7.73;5.10;;;15.90;99.90;;;;;;4975814;28;20538;-78
2023/09/02 00:31:56;;;;;;;6.60;4.67;;;15.90;99.90;;;;;;4974224;28;20210;-78
2023/09/02 00:34:21;;;;;;;9.63;5.80;;;15.90;99.90;;;;;;4975233;28;20542;-79
2023/09/02 00:36:47;;;;;;;5.90;4.63;;;15.90;99.90;;;;;;4974073;28;20265;-78
2023/09/02 00:39:12;;;;;;;10.00;4.43;;;15.90;99.90;;;;;;4975750;28;20174;-78
2023/09/02 00:41:47;;;;;;;9.50;5.10;;;15.80;99.90;;;;;;4975146;28;20606;-78
2023/09/02 00:44:12;;;;;;;11.00;4.40;;;15.90;99.90;;;;;;4974427;28;20643;-78
2023/09/02 00:46:38;;;;;;;7.23;4.57;;;15.80;99.90;;;;;;4975866;28;20189;-78
2023/09/02 00:49:04;;;;;;;6.53;4.80;;;15.80;99.90;;;;;;4974255;28;20502;-78
2023/09/02 00:51:29;;;;;;;7.40;4.63;;;15.80;99.90;;;;;;4975311;28;20237;-78
2023/09/02 00:53:55;;;;;;;7.27;3.80;;;15.80;99.90;;;;;;4974420;28;20565;-79
2023/09/02 00:56:21;;;;;;;9.87;4.33;;;15.80;99.90;;;;;;4974181;28;20186;-79
2023/09/02 00:58:47;;;;;;;11.07;4.07;;;15.80;99.90;;;;;;4974190;28;20181;-79
2023/09/02 01:01:12;;;;;;;7.67;4.30;;;15.80;99.90;;;;;;4973962;28;20178;-78
2023/09/02 01:03:42;;;;;;;8.60;4.43;;;15.70;99.90;;;;;;4974477;28;20186;-78
2023/09/02 01:06:08;;;;;;;14.17;5.13;;;15.70;99.90;;;;;;4974449;28;20241;-78
2023/09/02 01:08:34;;;;;;;9.43;4.27;;;15.90;99.90;;;;;;4975523;28;20356;-79
2023/09/02 01:11:00;;;;;;;7.50;4.50;;;15.60;99.90;;;;;;4975525;28;20289;-78
2023/09/02 01:13:30;;;;;;;8.50;4.83;;;15.70;99.90;;;;;;4975850;28;20198;-79
2023/09/02 01:15:56;;;;;;;6.83;4.57;;;15.70;99.90;;;;;;4975484;28;20185;-79
2023/09/02 01:18:22;;;;;;;7.43;4.90;;;15.70;99.90;;;;;;4973946;28;20649;-79
2023/09/02 01:21:20;;;;;;;6.97;4.77;;;15.70;99.90;;;;;;4973479;28;20190;-79
2023/09/02 01:24:30;;;;;;;6.20;4.77;;;15.70;99.90;;;;;;4975701;28;20717;-78
2023/09/02 01:27:02;;;;;;;8.93;5.10;;;15.70;99.90;;;;;;4973313;28;20194;-78
2023/09/02 01:29:32;;;;;;;8.63;5.20;;;15.70;99.90;;;;;;4975584;28;20607;-78
2023/09/02 01:32:00;;;;;;;9.30;4.97;;;15.70;99.90;;;;;;4973648;28;20217;-78
2023/09/02 01:34:28;;;;;;;6.00;4.67;;;15.70;99.90;;;;;;4975540;28;20225;-78
2023/09/02 01:36:54;;;;;;;9.87;4.80;;;15.70;99.90;;;;;;4975232;28;20181;-78
2023/09/02 01:39:22;;;;;;;7.80;5.40;;;15.70;99.90;;;;;;4971648;28;20662;-78
2023/09/02 01:41:50;;;;;;;6.90;4.43;;;15.70;99.90;;;;;;4973716;28;20242;-78
2023/09/02 01:44:16;;;;;;;6.07;4.30;;;15.70;99.90;;;;;;4975692;28;20180;-78
2023/09/02 01:46:42;;;;;;;7.97;4.17;;;15.70;99.90;;;;;;4974130;28;20721;-78
2023/09/02 01:49:09;;;;;;;9.10;4.47;;;15.70;99.90;;;;;;4973950;28;20194;-78
2023/09/02 01:51:35;;;;;;;7.73;4.07;;;15.80;99.90;;;;;;4975141;28;20257;-78
2023/09/02 01:54:00;;;;;;;9.27;4.23;;;15.70;99.90;;;;;;4975053;28;20186;-78
2023/09/02 01:56:27;;;;;;;7.80;3.80;;;15.70;99.90;;;;;;4974161;28;20178;-78
2023/09/02 01:58:53;;;;;;;7.23;4.37;;;15.70;99.90;;;;;;4973856;28;20197;-79
2023/09/02 02:01:19;;;;;;;6.83;4.00;;;15.70;99.90;;;;;;4975069;28;20186;-78
2023/09/02 02:04:11;;;;;;;6.20;4.40;;;15.70;99.90;;;;;;4974794;28;20185;-78
2023/09/02 02:06:39;;;;;;;6.40;4.00;;;15.70;99.90;;;;;;4972711;28;20190;-78
2023/09/02 02:09:09;;;;;;;8.07;4.20;;;15.70;99.90;;;;;;4977060;28;20201;-79
2023/09/02 02:11:36;;;;;;;8.17;4.03;;;15.70;99.90;;;;;;4976266;28;20297;-78
2023/09/02 02:14:03;;;;;;;7.77;4.30;;;15.70;99.90;;;;;;4978705;28;20183;-79
2023/09/02 02:16:29;;;;;;;11.27;4.60;;;15.70;99.90;;;;;;4977545;28;20197;-78
2023/09/02 02:18:56;;;;;;;7.87;4.17;;;15.70;99.90;;;;;;4978526;28;20171;-79
2023/09/02 02:21:22;;;;;;;6.10;4.10;;;15.80;99.90;;;;;;4978548;28;20210;-79
2023/09/02 02:23:48;;;;;;;10.80;4.43;;;15.70;99.90;;;;;;4977216;28;20269;-78
2023/09/02 02:26:15;;;;;;;5.83;4.10;;;15.70;99.90;;;;;;4978031;28;20179;-79
2023/09/02 02:28:41;;;;;;;4.33;3.93;;;15.70;99.90;;;;;;4976432;28;20174;-78
2023/09/02 02:31:07;;;;;;;4.50;3.83;;;15.70;99.90;;;;;;4978208;28;20202;-78
2023/09/02 02:33:33;;;;;;;6.80;3.50;;;15.70;99.90;;;;;;4978044;28;20202;-78
2023/09/02 02:35:58;;;;;;;12.50;4.07;;;15.70;99.90;;;;;;4976622;28;20185;-79
2023/09/02 02:38:24;;;;;;;9.50;3.80;;;15.70;99.90;;;;;;4978177;28;20182;-78
2023/09/02 02:40:49;;;;;;;5.23;3.90;;;15.70;99.90;;;;;;4979320;28;20178;-78
2023/09/02 02:43:15;;;;;;;5.90;3.77;;;15.70;99.90;;;;;;4983032;28;20282;-79
2023/09/02 02:45:44;;;;;;;8.70;3.83;;;15.60;99.90;;;;;;4987407;28;20184;-78
2023/09/02 02:48:15;;;;;;;7.53;3.83;;;15.60;99.90;;;;;;4979866;28;20189;-79
2023/09/02 02:50:41;;;;;;;6.27;4.20;;;15.60;99.90;;;;;;4978126;28;20205;-78
2023/09/02 02:53:07;;;;;;;9.03;4.20;;;15.60;99.90;;;;;;4976556;28;20202;-78
2023/09/02 02:55:33;;;;;;;6.10;3.87;;;15.60;99.90;;;;;;4976976;28;20238;-78
2023/09/02 02:57:59;;;;;;;7.93;4.07;;;15.60;99.90;;;;;;4976363;28;20264;-78
2023/09/02 03:00:24;;;;;;;5.37;3.83;;;15.70;99.90;;;;;;4977098;28;20193;-78
2023/09/02 03:02:53;;;;;;;5.30;4.07;;;15.60;99.90;;;;;;4977617;28;20194;-78
2023/09/02 03:05:20;;;;;;;4.30;3.60;;;15.60;99.90;;;;;;4976108;28;20617;-79
2023/09/02 03:07:47;;;;;;;5.73;4.10;;;15.60;99.90;;;;;;4976131;28;20241;-79
2023/09/02 03:10:12;;;;;;;9.90;4.00;;;15.60;99.90;;;;;;4978619;28;20182;-79
2023/09/02 03:12:38;;;;;;;7.63;4.37;;;15.50;99.90;;;;;;4976746;28;20269;-78
2023/09/02 03:15:04;;;;;;;5.23;4.10;;;15.50;99.90;;;;;;4977598;28;20179;-79
2023/09/02 03:17:30;;;;;;;6.37;4.23;;;15.50;99.90;;;;;;4976431;28;20218;-79
2023/09/02 03:19:55;;;;;;;8.57;4.20;;;15.50;99.90;;;;;;4975403;28;20178;-79
2023/09/02 03:22:21;;;;;;;9.40;4.77;;;15.50;99.90;;;;;;4977330;28;20253;-78
2023/09/02 03:24:54;;;;;;;5.10;3.97;;;15.50;99.90;;;;;;4976088;28;20232;-79
2023/09/02 03:27:20;;;;;;;5.47;3.90;;;15.50;99.90;;;;;;4976692;28;20189;-78
2023/09/02 03:29:49;;;;;;;10.13;4.07;;;15.50;99.90;;;;;;4977721;28;20553;-79
2023/09/02 03:32:14;;;;;;;8.37;4.27;;;15.50;99.90;;;;;;4977018;28;20591;-79
2023/09/02 03:34:40;;;;;;;9.13;4.37;;;15.50;99.90;;;;;;4977154;28;20190;-78
2023/09/02 03:37:05;;;;;;;10.47;4.03;;;15.50;99.90;;;;;;4977668;28;20591;-78
2023/09/02 03:39:33;;;;;;;7.20;4.27;;;15.50;99.90;;;;;;4975803;28;20189;-79
2023/09/02 03:41:59;;;;;;;8.30;3.93;;;15.50;99.90;;;;;;4977222;28;20728;-78
2023/09/02 03:44:25;;;;;;;7.63;3.80;;;15.50;99.90;;;;;;4976301;28;20186;-79
2023/09/02 03:46:51;;;;;;;6.70;3.63;;;15.40;99.90;;;;;;4974666;28;20195;-79
2023/09/02 03:49:16;;;;;;;7.03;3.87;;;15.60;99.90;;;;;;4976440;28;20249;-79
2023/09/02 03:51:42;;;;;;;5.97;3.80;;;15.60;99.90;;;;;;4976621;28;20268;-79
2023/09/02 03:54:08;;;;;;;7.80;3.83;;;15.50;99.90;;;;;;4975869;28;20170;-78
2023/09/02 03:56:36;;;;;;;7.77;3.93;;;15.50;99.90;;;;;;4975493;28;20232;-78
2023/09/02 03:59:05;;;;;;;9.93;3.93;;;15.40;99.90;;;;;;4975349;28;20228;-77
2023/09/02 04:01:31;;;;;;;5.37;3.40;;;15.50;99.90;;;;;;4974846;28;20694;-78
2023/09/02 04:03:57;;;;;;;6.63;3.70;;;15.50;99.90;;;;;;4975155;28;20185;-78
2023/09/02 04:06:22;;;;;;;5.87;3.50;;;15.50;99.90;;;;;;4976742;28;20666;-78
2023/09/02 04:08:48;;;;;;;3.77;3.10;;;15.40;99.90;;;;;;4976544;28;20178;-79
2023/09/02 04:11:14;;;;;;;7.03;3.57;;;15.50;99.90;;;;;;4974773;28;20206;-80
2023/09/02 04:13:41;;;;;;;6.83;3.30;;;15.50;99.90;;;;;;4976136;28;20176;-78
2023/09/02 04:16:08;;;;;;;6.37;3.43;;;15.50;99.90;;;;;;4975340;28;20654;-78
2023/09/02 04:18:34;;;;;;;6.47;3.10;;;15.50;99.90;;;;;;4976324;28;20171;-78
2023/09/02 04:21:01;;;;;;;4.70;3.00;;;15.50;99.90;;;;;;4974626;28;20558;-79
2023/09/02 04:23:26;;;;;;;3.27;2.70;;;15.50;99.90;;;;;;4975702;28;20182;-78
2023/09/02 04:25:53;;;;;;;2.93;2.63;;;15.50;99.90;;;;;;4975115;28;20245;-78
2023/09/02 04:28:20;;;;;;;3.13;2.67;;;15.50;99.90;;;;;;4975574;28;20210;-78
2023/09/02 04:30:47;;;;;;;4.37;2.63;;;15.50;99.90;;;;;;4976480;28;20241;-79
2023/09/02 04:33:13;;;;;;;4.30;2.80;;;15.40;99.90;;;;;;4975046;28;20199;-79
2023/09/02 04:35:40;;;;;;;6.70;3.10;;;15.50;99.90;;;;;;4976450;28;20289;-79
2023/09/02 04:38:06;;;;;;;5.77;2.90;;;15.50;99.90;;;;;;4974979;28;20526;-79
2023/09/02 04:40:36;;;;;;;9.17;3.10;;;15.50;99.90;;;;;;4976300;28;20232;-79
2023/09/02 04:43:03;;;;;;;5.63;2.63;;;15.40;99.90;;;;;;4974812;28;20308;-79
2023/09/02 04:45:32;;;;;;;6.07;2.67;;;15.50;99.90;;;;;;4975221;28;20668;-79
2023/09/02 04:47:57;;;;;;;3.50;2.60;;;15.50;99.90;;;;;;4974567;28;20189;-79
2023/09/02 04:50:23;;;;;;;3.20;2.90;;;15.40;99.90;;;;;;4976474;28;20198;-78
2023/09/02 04:52:49;;;;;;;7.40;2.83;;;15.50;99.90;;;;;;4975502;28;20194;-79
2023/09/02 04:55:16;;;;;;;3.27;2.53;;;15.40;99.90;;;;;;4976414;28;20185;-79
2023/09/02 04:57:41;;;;;;;6.50;2.40;;;15.40;99.90;;;;;;4980838;28;20194;-78
2023/09/02 05:00:07;;;;;;;7.50;2.73;;;15.40;99.90;;;;;;4982572;28;20189;-78
2023/09/02 05:02:33;;;;;;;3.50;2.70;;;15.40;99.90;;;;;;4978829;28;20210;-79
2023/09/02 05:04:58;;;;;;;5.77;3.00;;;15.40;99.90;;;;;;4975823;28;20183;-78
2023/09/02 05:07:24;;;;;;;7.90;2.80;;;15.30;99.90;;;;;;4975908;28;20185;-78
2023/09/02 05:09:51;;;;;;;4.60;3.00;;;15.40;99.90;;;;;;4973701;28;20569;-78
2023/09/02 05:12:16;;;;;;;4.67;2.80;;;15.40;99.90;;;;;;4975647;28;20205;-78
2023/09/02 05:14:42;;;;;;;4.87;2.90;;;15.40;99.90;;;;;;4975568;28;20162;-78
2023/09/02 05:17:07;;;;;;;6.20;2.80;;;15.40;99.90;;;;;;4974423;28;20166;-80
2023/09/02 05:19:33;;;;;;;7.70;2.93;;;15.40;99.90;;;;;;4959056;28;20722;-79
2023/09/02 05:21:58;;;;;;;5.10;2.90;;;15.40;99.90;;;;;;4956831;28;20194;-79
2023/09/02 05:24:24;;;;;;;4.67;2.47;;;15.50;99.90;;;;;;4956045;29;20207;-78
2023/09/02 05:26:49;;;;;;;4.93;2.43;;;15.50;99.90;;;;;;4955057;29;20179;-78
2023/09/02 05:29:15;;;;;;;7.07;2.87;;;15.50;99.90;;;;;;4954641;29;20558;-78
2023/09/02 05:31:40;;;;;;;5.03;2.67;;;15.50;99.90;;;;;;4955846;28;20210;-77
2023/09/02 05:34:06;;;;;;;4.13;2.50;;;15.50;99.90;;;;;;4961196;28;20281;-79
2023/09/02 05:36:32;;;;;;;4.93;2.70;;;15.50;99.90;;;;;;4974352;28;20233;-78
2023/09/02 05:38:57;;;;;;;3.50;2.70;;;15.60;99.90;;;;;;4975933;28;20186;-78
2023/09/02 05:41:24;;;;;;;4.20;2.37;;;15.60;99.90;;;;;;4975517;28;20198;-78
2023/09/02 05:43:50;;;;;;;7.57;2.30;;;15.60;99.90;;;;;;4978042;28;20559;-78
2023/09/02 05:46:16;;;;;;;7.97;2.47;;;15.60;99.90;;;;;;4976909;28;20190;-79
2023/09/02 05:48:41;;;;;;;6.27;2.10;;;15.60;99.90;;;;;;4978677;28;20178;-78
2023/09/02 05:51:07;;;;;;;2.93;2.20;;;15.70;99.90;;;;;;4979370;28;20674;-79
2023/09/02 05:53:32;;;;;;;5.47;2.37;;;15.70;99.90;;;;;;4977780;28;20186;-79
2023/09/02 05:55:58;;;;;;;4.37;2.30;;;15.70;99.90;;;;;;4977206;28;20539;-79
2023/09/02 05:58:24;;;;;;;4.60;2.37;;;15.70;99.90;;;;;;4977330;28;20672;-78
2023/09/02 06:00:50;;;;;;;3.60;2.47;;;15.80;99.90;;;;;;4976466;28;20198;-78
2023/09/02 06:03:16;;;;;;;3.10;2.37;;;15.80;99.90;;;;;;4978287;28;20202;-78
2023/09/02 06:05:41;;;;;;;7.37;2.30;;;15.80;99.90;;;;;;4978685;28;20209;-78
2023/09/02 06:08:07;;;;;;;3.97;2.10;;;15.80;99.90;;;;;;4978516;28;20596;-78
2023/09/02 06:10:32;;;;;;;3.47;2.47;;;15.80;99.90;;;;;;4978135;28;20566;-78
2023/09/02 06:12:58;;;;;;;5.50;2.47;;;15.80;99.90;;;;;;4976850;28;20202;-78
2023/09/02 06:15:23;;;;;;;5.17;2.20;;;15.90;99.90;;;;;;4975892;28;20270;-78
2023/09/02 06:17:49;;;;;;;2.80;2.20;;;15.90;99.90;;;;;;4976686;28;20182;-78
2023/09/02 06:20:16;;;;;;;4.00;2.20;;;16.00;99.90;;;;;;4978723;28;20642;-78
2023/09/02 06:22:42;;;;;;;2.47;2.00;;;16.00;99.90;;;;;;4978316;28;20282;-78
2023/09/02 06:25:08;;;;;;;3.23;2.20;;;16.00;99.90;;;;;;4976543;28;20178;-78
2023/09/02 06:27:33;;;;;;;5.40;2.00;;;16.00;99.90;;;;;;4978131;28;20170;-78
2023/09/02 06:29:59;;;;;;;6.60;2.40;;;16.00;99.90;;;;;;4976753;28;20202;-78
2023/09/02 06:32:25;;;;;;;3.93;2.20;;;16.10;99.90;;;;;;4977711;28;20218;-78
2023/09/02 06:34:53;;;;;;;3.93;2.10;;;16.10;99.90;;;;;;4977918;28;20554;-78
2023/09/02 06:37:19;;;;;;;3.33;2.23;;;16.10;99.90;;;;;;4977924;28;20190;-77
2023/09/02 06:39:44;;;;;;;4.77;2.23;;;16.20;99.90;;;;;;4975922;28;20189;-78
2023/09/02 06:42:10;;;;;;;5.30;2.20;;;16.20;99.90;;;;;;4976897;28;20218;-77
2023/09/02 06:44:35;;;;;;;3.20;2.33;;;16.20;99.90;;;;;;4975545;28;20178;-77
2023/09/02 06:47:01;;;;;;;7.77;2.40;;;16.20;99.90;;;;;;4975652;28;20272;-78
2023/09/02 06:49:27;;;;;;;2.10;1.90;;;16.30;99.90;;;;;;4975806;28;20185;-78
2023/09/02 06:51:53;;;;;;;3.27;2.00;;;16.30;99.90;;;;;;4975574;28;20645;-78
2023/09/02 06:54:18;;;;;;;3.83;1.87;;;16.40;99.90;;;;;;4976127;28;20174;-78
2023/09/02 06:56:45;;;;;;;3.33;1.90;;;16.40;99.90;;;;;;4976627;28;20225;-77
2023/09/02 06:59:10;;;;;;;2.80;1.90;;;16.40;99.90;;;;;;4976301;28;20171;-78
2023/09/02 07:01:36;;;;;;;4.63;2.20;;;16.40;99.90;;;;;;4975365;28;20206;-78
2023/09/02 07:04:01;;;;;;;3.30;1.90;;;16.50;99.90;;;;;;4981735;28;20201;-79
2023/09/02 07:06:27;;;;;;;4.37;2.10;;;16.50;99.90;;;;;;4982305;28;20178;-79
2023/09/02 07:08:52;;;;;;;3.60;1.90;;;16.60;99.90;;;;;;4983701;28;20182;-79
2023/09/02 07:11:18;;;;;;;5.00;1.97;;;16.60;99.90;;;;;;4982168;28;20202;-79
2023/09/02 07:13:45;;;;;;;4.47;1.70;;;16.60;99.90;;;;;;4980159;28;20189;-79
2023/09/02 07:16:11;;;;;;;1.90;1.70;;;16.60;99.90;;;;;;4987476;28;20174;-79
2023/09/02 07:18:37;;;;;;;2.27;1.97;;;16.70;99.90;;;;;;4987190;28;20224;-79
2023/09/02 07:21:05;;;;;;;4.60;2.10;;;16.70;99.90;;;;;;4981760;28;20201;-79
2023/09/02 07:23:32;;;;;;;2.23;1.90;;;16.80;99.90;;;;;;4981616;28;20649;-79
2023/09/02 07:26:01;;;;;;;2.60;1.97;;;16.80;99.90;;;;;;4981226;28;20190;-80
2023/09/02 07:28:28;;;;;;;1.70;1.60;;;16.80;99.90;;;;;;4982019;28;20613;-79
2023/09/02 07:30:56;;;;;;;4.20;1.83;;;16.80;99.90;;;;;;4982853;28;20206;-79
2023/09/02 07:33:21;;;;;;;3.30;1.70;;;16.80;99.90;;;;;;4980416;28;20198;-79
2023/09/02 07:35:47;;;;;;;3.30;1.60;;;17.00;99.90;;;;;;4982818;28;20183;-78
2023/09/02 07:38:13;;;;;;;6.27;1.60;;;16.90;99.90;;;;;;4983594;28;20205;-79
2023/09/02 07:40:39;;;;;;;4.30;1.40;;;17.00;99.90;;;;;;4981438;28;20187;-79
2023/09/02 07:43:06;;;;;;;1.47;1.37;;;17.00;99.90;;;;;;4981117;28;20233;-79
2023/09/02 07:45:31;;;;;;;1.60;1.43;;;17.00;99.90;;;;;;4980144;28;20717;-79
2023/09/02 07:47:57;;;;;;;3.07;1.30;;;17.30;99.90;;;;;;4980848;28;20217;-78
2023/09/02 07:50:23;;;;;;;2.07;1.50;;;17.10;99.90;;;;;;4981112;28;20182;-79
2023/09/02 07:52:48;;;;;;;2.90;1.37;;;17.20;99.90;;;;;;4981389;28;20198;-78
2023/09/02 07:55:14;;;;;;;1.60;1.50;;;17.20;99.90;;;;;;4982941;28;20236;-78
2023/09/02 07:57:40;;;;;;;4.27;1.60;;;17.20;99.90;;;;;;4981003;28;20194;-79
2023/09/02 08:00:08;;;;;;;4.23;1.33;;;17.10;99.90;;;;;;4980214;28;20186;-79
2023/09/02 08:02:33;;;;;;;2.40;1.40;;;17.30;99.90;;;;;;4981079;28;20198;-79
2023/09/02 08:04:59;;;;;;;1.53;1.40;;;17.30;99.90;;;;;;4982598;28;20192;-79
2023/09/02 08:07:24;;;;;;;3.63;1.40;;;17.40;99.90;;;;;;4983471;28;20685;-79
2023/09/02 08:09:50;;;;;;;1.53;1.33;;;17.40;99.90;;;;;;4979318;28;20186;-78
2023/09/02 08:12:16;;;;;;;3.70;1.40;;;17.50;99.90;;;;;;4979361;28;20218;-78
2023/09/02 08:14:41;;;;;;;1.87;1.30;;;17.60;99.90;;;;;;4977649;28;20674;-78
2023/09/02 08:17:07;;;;;;;2.93;1.43;;;17.60;99.90;;;;;;4979002;28;20174;-78
2023/09/02 08:19:33;;;;;;;1.67;1.43;;;17.70;99.90;;;;;;4977587;28;20174;-78
2023/09/02 08:21:58;;;;;;;1.97;1.40;;;17.70;99.90;;;;;;4978107;28;20198;-78
2023/09/02 08:24:24;;;;;;;2.87;1.40;;;17.70;99.90;;;;;;4979688;28;20175;-78
2023/09/02 08:26:49;;;;;;;2.53;1.60;;;17.70;99.90;;;;;;4978037;28;20205;-77
2023/09/02 08:29:15;;;;;;;1.67;1.50;;;17.80;99.90;;;;;;4978837;28;20209;-78
2023/09/02 08:31:41;;;;;;;4.07;1.50;;;17.80;99.90;;;;;;4976482;28;20218;-78
2023/09/02 08:34:06;;;;;;;2.63;1.40;;;17.80;99.90;;;;;;4978717;28;20543;-78
2023/09/02 08:36:32;;;;;;;3.70;1.67;;;17.90;99.90;;;;;;4977898;28;20213;-78
2023/09/02 08:38:57;;;;;;;3.50;1.50;;;17.90;99.90;;;;;;4977586;28;20571;-78
2023/09/02 08:41:30;;;;;;;3.87;1.40;;;18.00;99.90;;;;;;4977409;28;20670;-78
2023/09/02 08:44:03;;;;;;;2.33;1.53;;;18.00;99.90;;;;;;4977371;28;20656;-78
2023/09/02 08:46:31;;;;;;;3.40;1.60;;;18.10;99.90;;;;;;4976021;28;20186;-79
2023/09/02 08:48:58;;;;;;;2.63;1.37;;;18.20;99.90;;;;;;4977460;28;20186;-78
2023/09/02 08:51:25;;;;;;;2.33;1.20;;;18.20;99.90;;;;;;4978586;28;20229;-78
2023/09/02 08:53:54;;;;;;;2.93;1.60;;;18.30;99.90;;;;;;4978170;28;20178;-78
2023/09/02 08:56:21;;;;;;;2.40;1.47;;;18.40;99.90;;;;;;4979154;28;20171;-78
2023/09/02 08:58:48;;;;;;;1.80;1.60;;;18.40;99.90;;;;;;4977180;28;20220;-78
2023/09/02 09:01:19;;;;;;;2.33;1.30;;;18.40;99.90;;;;;;4977628;28;20277;-79
2023/09/02 09:03:52;;;;;;;3.23;1.43;;;18.50;99.90;;;;;;4975783;28;20186;-78
2023/09/02 09:06:20;;;;;;;4.43;1.50;;;18.60;99.90;;;;;;4979036;28;20200;-78
2023/09/02 09:08:49;;;;;;;5.63;1.33;;;18.70;99.90;;;;;;4978425;28;20269;-78
2023/09/02 09:11:18;;;;;;;1.90;1.30;;;18.70;99.90;;;;;;4978465;28;20213;-78
2023/09/02 09:13:47;;;;;;;2.23;1.50;;;18.80;99.90;;;;;;4978230;28;20182;-78
2023/09/02 09:16:16;;;;;;;2.10;1.60;;;18.80;99.90;;;;;;4978774;28;20273;-79
2023/09/02 09:18:42;;;;;;;2.30;1.60;;;18.90;99.90;;;;;;4980002;28;20178;-79
2023/09/02 09:21:08;;;;;;;2.17;1.50;;;19.00;99.90;;;;;;4977840;28;20236;-79
2023/09/02 09:23:35;;;;;;;1.77;1.37;;;19.10;99.90;;;;;;4983724;28;20221;-78
2023/09/02 09:26:04;;;;;;;3.00;1.30;;;19.20;99.90;;;;;;4983796;28;20205;-78
2023/09/02 09:28:58;;;;;;;3.57;1.40;;;19.20;99.90;;;;;;4983885;28;20239;-78
2023/09/02 09:31:25;;;;;;;4.60;1.20;;;19.20;99.90;;;;;;4983376;28;20221;-79
2023/09/02 09:33:58;;;;;;;1.73;1.30;;;19.30;99.90;;;;;;4988776;28;20209;-80
2023/09/02 09:36:24;;;;;;;5.27;1.43;;;19.40;99.90;;;;;;4986750;28;20672;-78
2023/09/02 09:38:55;;;;;;;4.83;1.57;;;19.40;99.90;;;;;;4982259;28;20171;-78
2023/09/02 09:41:22;;;;;;;3.43;1.40;;;19.50;99.90;;;;;;4979731;28;20305;-78
2023/09/02 09:44:12;;;;;;;2.23;0.93;;;19.50;99.90;;;;;;4981127;28;20194;-78
2023/09/02 09:46:43;;;;;;;1.93;1.20;;;19.60;99.90;;;;;;4978260;28;20209;-79
2023/09/02 09:49:32;;;;;;;2.93;1.37;;;19.60;99.90;;;;;;4981200;28;20206;-78
2023/09/02 09:52:00;;;;;;;3.87;1.30;;;19.60;99.90;;;;;;4980071;28;20364;-79
2023/09/02 09:54:37;;;;;;;4.03;1.20;;;19.80;99.90;;;;;;4981295;28;20171;-79
2023/09/02 09:57:04;;;;;;;3.10;1.20;;;19.90;99.90;;;;;;4980232;28;20182;-79
2023/09/02 09:59:29;;;;;;;1.77;1.30;;;19.90;99.90;;;;;;4979127;28;20324;-78
2023/09/02 10:01:55;;;;;;;1.97;1.27;;;20.10;99.90;;;;;;4980664;28;20245;-78
2023/09/02 10:04:21;;;;;;;3.03;1.17;;;19.90;99.90;;;;;;4981771;28;20209;-79
2023/09/02 10:06:48;;;;;;;2.97;1.60;;;19.90;99.90;;;;;;4981645;28;20289;-79
2023/09/02 10:09:13;;;;;;;2.33;1.20;;;20.00;99.90;;;;;;4981540;28;20186;-78
2023/09/02 10:11:39;;;;;;;4.50;1.70;;;20.10;99.90;;;;;;4981208;28;20293;-80
2023/09/02 10:14:05;;;;;;;5.10;2.23;;;20.10;99.90;;;;;;4979335;28;20225;-79
2023/09/02 10:16:34;;;;;;;1.37;1.10;;;20.10;99.90;;;;;;4980618;28;20192;-79
2023/09/02 10:19:02;;;;;;;2.70;1.20;;;20.10;99.90;;;;;;4981189;28;20194;-79
2023/09/02 10:21:29;;;;;;;2.43;1.10;;;20.10;99.90;;;;;;4979755;28;20221;-79
2023/09/02 10:23:59;;;;;;;1.50;1.30;;;20.10;99.90;;;;;;4979722;28;20178;-79
2023/09/02 10:26:31;;;;;;;2.00;1.07;;;20.30;99.90;;;;;;4977092;28;20725;-77
2023/09/02 10:29:00;;;;;;;1.93;1.20;;;20.40;99.90;;;;;;4977214;28;20213;-79
2023/09/02 10:31:37;;;;;;;3.03;1.33;;;20.50;99.90;;;;;;4975377;28;20214;-78
2023/09/02 10:34:27;;;;;;;5.53;1.20;;;20.60;99.90;;;;;;4973799;28;20209;-77
2023/09/02 10:36:57;;;;;;;3.27;1.03;;;20.60;99.90;;;;;;4974761;28;20175;-77
2023/09/02 10:39:44;;;;;;;3.00;1.47;;;20.80;99.90;;;;;;4976008;28;20178;-77
2023/09/02 10:42:11;;;;;;;2.63;1.30;;;20.80;99.90;;;;;;4975958;28;20233;-77
2023/09/02 10:44:37;;;;;;;3.37;1.30;;;20.80;99.90;;;;;;4975834;28;20189;-76
2023/09/02 10:47:03;;;;;;;3.27;1.20;;;20.90;99.90;;;;;;4974819;28;20261;-78
2023/09/02 10:49:30;;;;;;;2.50;1.17;;;21.00;99.90;;;;;;4974397;28;20182;-77
2023/09/02 10:51:56;;;;;;;2.43;1.10;;;21.10;99.90;;;;;;4974315;28;20768;-77
2023/09/02 10:54:22;;;;;;;4.87;1.23;;;21.10;99.90;;;;;;4975656;28;20241;-77
2023/09/02 10:56:47;;;;;;;4.73;1.20;;;21.00;99.90;;;;;;4974379;28;20197;-77
2023/09/02 10:59:28;;;;;;;2.07;1.50;;;21.20;99.90;;;;;;4974298;28;20178;-76
2023/09/02 11:01:53;;;;;;;1.63;1.07;;;21.20;99.90;;;;;;4973970;28;20290;-79
2023/09/02 11:04:41;;;;;;;1.60;1.10;;;21.20;99.90;;;;;;4973126;28;20269;-77
2023/09/02 11:07:24;;;;;;;2.13;1.00;;;21.30;99.90;;;;;;4974153;28;20216;-77
2023/09/02 11:09:56;;;;;;;4.77;1.33;;;21.40;99.90;;;;;;4975469;28;20177;-77
2023/09/02 11:12:22;;;;;;;1.13;0.87;;;21.40;99.90;;;;;;4973958;28;20213;-77
2023/09/02 11:15:06;;;;;;;2.87;1.13;;;21.40;99.90;;;;;;4975296;28;20196;-77
2023/09/02 11:17:33;;;;;;;2.17;1.33;;;21.50;99.90;;;;;;4973980;28;20178;-77
2023/09/02 11:20:02;;;;;;;4.63;1.67;;;21.50;99.90;;;;;;4974310;28;20271;-77
2023/09/02 11:22:50;;;;;;;4.33;1.40;;;21.60;99.90;;;;;;4975206;28;20197;-77
2023/09/02 11:25:38;;;;;;;2.23;1.20;;;21.60;99.90;;;;;;4975553;28;20171;-79
2023/09/02 11:28:10;;;;;;;1.67;1.10;;;21.50;99.90;;;;;;4975551;28;20230;-77
2023/09/02 11:30:37;;;;;;;3.30;1.70;;;21.60;99.90;;;;;;4975743;28;20194;-78
2023/09/02 11:33:04;;;;;;;2.80;1.20;;;21.70;99.90;;;;;;4973326;28;20198;-78
2023/09/02 11:35:37;;;;;;;3.40;1.40;;;21.60;99.90;;;;;;4973933;28;20174;-77
2023/09/02 11:38:15;;;;;;;2.53;1.30;;;21.70;99.90;;;;;;4973758;28;20594;-77
2023/09/02 11:40:41;;;;;;;2.50;1.40;;;21.80;99.90;;;;;;4974690;28;20173;-77
2023/09/02 11:43:07;;;;;;;4.00;1.27;;;21.80;99.90;;;;;;4974775;28;20217;-78
2023/09/02 11:45:35;;;;;;;2.13;1.20;;;22.00;99.90;;;;;;4974212;28;20225;-78
2023/09/02 11:48:06;;;;;;;4.33;1.30;;;22.00;99.90;;;;;;4990042;28;20193;-78
2023/09/02 11:50:32;;;;;;;3.83;1.90;;;22.00;99.90;;;;;;4975912;28;20182;-78
2023/09/02 11:52:58;;;;;;;4.07;2.63;;;22.00;99.90;;;;;;4974651;28;20202;-77
2023/09/02 11:55:25;;;;;;;6.80;3.13;;;22.00;99.90;;;;;;4973298;28;20186;-77
2023/09/02 11:57:51;;;;;;;9.37;3.80;;;22.00;99.90;;;;;;4973247;28;20281;-77
2023/09/02 12:00:25;;;;;;;6.73;3.23;;;22.10;99.90;;;;;;4971521;28;20183;-78
2023/09/02 12:02:55;;;;;;;6.13;3.37;;;22.00;99.90;;;;;;4973889;28;20206;-77
2023/09/02 12:05:20;;;;;;;7.33;5.27;;;21.80;99.90;;;;;;4974456;28;20175;-77
2023/09/02 12:07:46;;;;;;;7.37;4.57;;;22.00;99.90;;;;;;4974638;28;20610;-77
2023/09/02 12:10:17;;;;;;;9.53;5.87;;;21.90;99.90;;;;;;4973135;28;20181;-77
2023/09/02 12:12:53;;;;;;;10.53;5.70;;;22.10;99.90;;;;;;4972944;28;20577;-77
2023/09/02 12:15:19;;;;;;;8.87;5.90;;;22.20;99.90;;;;;;4972736;28;20193;-79
2023/09/02 12:17:47;;;;;;;8.77;5.10;;;22.20;99.90;;;;;;4968574;28;20535;-77
2023/09/02 12:20:14;;;;;;;10.30;5.23;;;22.20;99.90;;;;;;4954931;29;20181;-77
2023/09/02 12:22:43;;;;;;;8.97;5.50;;;22.30;99.90;;;;;;4954768;28;20214;-77
2023/09/02 12:25:17;;;;;;;9.53;5.60;;;22.40;99.90;;;;;;4954794;29;20610;-76
2023/09/02 12:27:43;;;;;;;8.90;5.23;;;22.40;99.90;;;;;;4958170;28;20692;-77
2023/09/02 12:30:13;;;;;;;8.57;5.30;;;22.40;99.90;;;;;;4974029;28;20174;-77
2023/09/02 12:32:39;;;;;;;7.00;4.70;;;22.50;99.90;;;;;;4972497;28;20209;-77
2023/09/02 12:35:11;;;;;;;8.50;5.00;;;22.60;99.90;;;;;;4972694;28;20174;-77
2023/09/02 12:37:37;;;;;;;6.83;4.57;;;22.60;99.90;;;;;;4973904;28;20174;-77
2023/09/02 12:40:13;;;;;;;8.97;5.03;;;22.70;99.90;;;;;;4974119;28;20697;-77
2023/09/02 12:42:40;;;;;;;8.40;5.43;;;22.70;99.90;;;;;;4972937;28;20720;-77
2023/09/02 12:45:08;;;;;;;7.93;5.53;;;22.60;99.90;;;;;;4972517;28;20285;-78
2023/09/02 12:47:34;;;;;;;10.80;6.07;;;22.80;99.90;;;;;;4973842;28;20209;-77